Time;durP1;ratioP1;P1;durP2;ratioP2;P2;SDS_P1;SDS_P2;PMS_P1;PMS_P2;Temp;Humidity;BMP_temperature;BMP_pressure;BME280_temperature;BME280_humidity;BME280_pressure;Samples;Min_cycle;Max_cycle;Signal;HPM_P1;HPM_P2
2022/08/02 00:02:23;;;;;;;4.47;1.60;;;20.30;99.90;;;;;;5032287;28;20707;-58
2022/08/02 00:04:50;;;;;;;4.53;1.60;;;20.30;99.90;;;;;;5031164;28;20186;-58
2022/08/02 00:07:16;;;;;;;2.83;1.38;;;20.30;99.90;;;;;;5033080;28;20213;-57
2022/08/02 00:09:43;;;;;;;5.70;1.50;;;20.40;99.90;;;;;;5032135;28;20261;-58
2022/08/02 00:12:09;;;;;;;9.70;1.88;;;20.30;99.90;;;;;;5036504;28;20166;-57
2022/08/02 00:14:36;;;;;;;2.42;1.42;;;20.30;99.90;;;;;;5035468;28;20174;-58
2022/08/02 00:17:01;;;;;;;3.40;1.50;;;20.30;99.90;;;;;;5048060;28;20177;-57
2022/08/02 00:19:27;;;;;;;3.25;1.67;;;20.30;99.90;;;;;;5039865;28;20550;-57
2022/08/02 00:21:53;;;;;;;2.30;1.30;;;20.30;99.90;;;;;;5032112;28;20181;-57
2022/08/02 00:24:18;;;;;;;5.45;1.70;;;20.20;99.90;;;;;;5045735;28;20628;-57
2022/08/02 00:26:44;;;;;;;2.83;1.90;;;20.20;99.90;;;;;;5033430;28;20216;-58
2022/08/02 00:29:10;;;;;;;3.17;1.58;;;20.20;99.90;;;;;;5031359;28;20169;-57
2022/08/02 00:31:36;;;;;;;3.67;1.90;;;20.20;99.90;;;;;;5032300;28;20662;-58
2022/08/02 00:34:02;;;;;;;3.67;1.85;;;20.20;99.90;;;;;;5033974;28;20185;-57
2022/08/02 00:36:28;;;;;;;4.00;1.83;;;20.30;99.90;;;;;;5032668;28;20184;-57
2022/08/02 00:38:53;;;;;;;10.80;2.40;;;20.30;99.90;;;;;;5031342;28;20228;-57
2022/08/02 00:41:21;;;;;;;8.48;2.00;;;20.30;99.90;;;;;;5032010;28;20566;-57
2022/08/02 00:43:48;;;;;;;4.22;2.15;;;20.40;99.90;;;;;;5030637;28;20525;-58
2022/08/02 00:46:15;;;;;;;6.45;2.15;;;20.40;99.90;;;;;;5035030;28;20212;-57
2022/08/02 00:48:41;;;;;;;4.00;1.70;;;20.30;99.90;;;;;;5046248;28;20696;-72
2022/08/02 00:51:07;;;;;;;5.32;1.90;;;20.30;99.90;;;;;;5037878;28;20267;-58
2022/08/02 00:53:33;;;;;;;4.90;1.95;;;20.40;99.90;;;;;;5049476;28;20165;-58
2022/08/02 00:55:59;;;;;;;5.63;2.10;;;20.30;99.90;;;;;;5045860;28;20169;-58
2022/08/02 00:58:26;;;;;;;5.18;2.00;;;20.30;99.90;;;;;;5031307;28;20241;-58
2022/08/02 01:00:52;;;;;;;6.03;1.88;;;20.30;99.90;;;;;;5031888;28;20172;-58
2022/08/02 01:03:17;;;;;;;5.75;1.90;;;20.30;99.90;;;;;;5031602;28;20264;-58
2022/08/02 01:05:43;;;;;;;3.25;1.60;;;20.20;99.90;;;;;;5039664;28;20273;-58
2022/08/02 01:08:09;;;;;;;5.25;2.10;;;20.20;99.90;;;;;;5034540;28;20215;-58
2022/08/02 01:10:35;;;;;;;6.18;1.90;;;20.10;99.90;;;;;;5031317;28;20193;-58
2022/08/02 01:13:01;;;;;;;6.55;2.08;;;20.10;99.90;;;;;;5031197;28;20649;-58
2022/08/02 01:15:27;;;;;;;2.15;1.75;;;20.10;99.90;;;;;;5041661;28;20183;-58
2022/08/02 01:18:04;;;;;;;2.47;1.90;;;20.10;99.90;;;;;;5038982;28;20174;-58
2022/08/02 01:21:00;;;;;;;6.70;1.73;;;20.00;99.90;;;;;;5047112;28;20644;-58
2022/08/02 01:23:51;;;;;;;2.67;1.77;;;20.00;99.90;;;;;;5043294;28;20177;-57
2022/08/02 01:26:38;;;;;;;2.97;2.10;;;20.00;99.90;;;;;;5039914;28;20229;-57
2022/08/02 01:29:04;;;;;;;4.43;1.80;;;20.00;99.90;;;;;;5031211;28;20184;-57
2022/08/02 01:31:41;;;;;;;8.05;2.00;;;20.00;99.90;;;;;;5031062;28;20636;-57
2022/08/02 01:34:28;;;;;;;3.95;1.80;;;20.00;99.90;;;;;;5030556;28;20170;-57
2022/08/02 01:37:00;;;;;;;7.03;1.92;;;20.00;99.90;;;;;;5030760;28;20231;-57
2022/08/02 01:39:29;;;;;;;7.55;2.38;;;20.00;99.90;;;;;;5030684;28;20167;-57
2022/08/02 01:41:57;;;;;;;5.97;1.90;;;20.00;99.90;;;;;;5030976;28;20167;-58
2022/08/02 01:44:25;;;;;;;6.93;1.90;;;20.00;99.90;;;;;;5030533;28;20181;-57
2022/08/02 01:46:54;;;;;;;4.68;2.00;;;20.00;99.90;;;;;;5032958;28;20214;-58
2022/08/02 01:49:22;;;;;;;6.45;1.88;;;20.00;99.90;;;;;;5046928;28;20197;-58
2022/08/02 01:54:37;;;;;;;3.83;1.83;;;20.10;99.90;;;;;;5030815;28;20265;-58
2022/08/02 01:57:05;;;;;;;9.18;2.08;;;20.10;99.90;;;;;;5029332;28;20186;-57
2022/08/02 01:59:32;;;;;;;4.38;1.80;;;20.10;99.90;;;;;;5030434;28;20180;-57
2022/08/02 02:02:00;;;;;;;5.38;2.08;;;20.00;99.90;;;;;;5040696;28;20177;-58
2022/08/02 02:04:29;;;;;;;4.70;2.03;;;20.00;99.90;;;;;;5050306;28;20206;-57
2022/08/02 02:06:56;;;;;;;8.93;2.45;;;20.00;99.90;;;;;;5050155;28;20241;-57
2022/08/02 02:09:28;;;;;;;3.78;2.10;;;20.00;99.90;;;;;;5050219;28;20256;-57
2022/08/02 02:11:58;;;;;;;5.95;2.05;;;20.10;99.90;;;;;;5047237;28;20178;-58
2022/08/02 02:14:24;;;;;;;7.80;2.00;;;20.00;99.90;;;;;;5033993;28;20243;-58
2022/08/02 02:16:52;;;;;;;5.15;1.92;;;20.10;99.90;;;;;;5033866;28;20173;-58
2022/08/02 02:19:20;;;;;;;5.38;1.92;;;20.00;99.90;;;;;;5039079;28;20658;-57
2022/08/02 02:21:46;;;;;;;7.07;1.88;;;20.10;99.90;;;;;;5049725;28;20267;-58
2022/08/02 02:24:12;;;;;;;4.55;1.77;;;20.00;99.90;;;;;;5033661;28;20197;-58
2022/08/02 02:26:40;;;;;;;3.45;1.73;;;20.00;99.90;;;;;;5032940;28;20265;-58
2022/08/02 02:29:08;;;;;;;4.47;2.05;;;19.90;99.90;;;;;;5042133;28;20235;-58
2022/08/02 02:31:41;;;;;;;10.45;2.20;;;19.80;99.90;;;;;;5051499;28;20191;-60
2022/08/02 02:34:24;;;;;;;4.85;2.10;;;19.90;99.90;;;;;;5033081;28;20265;-57
2022/08/02 02:36:51;;;;;;;7.60;2.20;;;19.80;99.90;;;;;;5033642;28;20174;-58
2022/08/02 02:39:20;;;;;;;5.47;2.10;;;19.90;99.90;;;;;;5033401;28;20177;-58
2022/08/02 02:41:47;;;;;;;4.68;1.90;;;19.90;99.90;;;;;;5033835;28;20252;-58
2022/08/02 02:44:17;;;;;;;5.43;1.80;;;19.90;99.90;;;;;;5033333;28;20216;-58
2022/08/02 02:46:43;;;;;;;8.30;2.20;;;19.90;99.90;;;;;;5033029;28;20267;-58
2022/08/02 02:49:10;;;;;;;4.45;1.83;;;19.90;99.90;;;;;;5033197;28;20260;-60
2022/08/02 02:51:38;;;;;;;6.85;2.20;;;19.90;99.90;;;;;;5034499;28;20174;-58
2022/08/02 02:54:05;;;;;;;3.92;1.88;;;19.90;99.90;;;;;;5033138;28;20174;-58
2022/08/02 02:56:31;;;;;;;6.35;1.95;;;19.90;99.90;;;;;;5033535;28;20174;-58
2022/08/02 02:58:59;;;;;;;7.15;2.03;;;19.80;99.90;;;;;;5033028;28;20170;-58
2022/08/02 03:01:29;;;;;;;7.00;1.98;;;19.80;99.90;;;;;;5035418;28;20644;-58
2022/08/02 03:03:59;;;;;;;5.88;2.33;;;19.90;99.90;;;;;;5051602;28;20169;-58
2022/08/02 03:06:25;;;;;;;8.77;2.10;;;19.90;99.90;;;;;;5049955;28;20232;-58
2022/08/02 03:08:51;;;;;;;3.45;2.00;;;19.90;99.90;;;;;;5032724;28;20620;-58
2022/08/02 03:11:17;;;;;;;9.13;2.40;;;19.90;99.90;;;;;;5033224;28;20166;-57
2022/08/02 03:13:43;;;;;;;8.77;2.33;;;19.90;99.90;;;;;;5031864;28;20600;-57
2022/08/02 03:16:10;;;;;;;7.35;2.05;;;19.90;99.90;;;;;;5032798;28;20644;-58
2022/08/02 03:18:41;;;;;;;8.68;2.40;;;20.00;99.90;;;;;;5032670;28;20174;-58
2022/08/02 03:21:12;;;;;;;6.82;2.08;;;19.90;99.90;;;;;;5032954;28;20186;-57
2022/08/02 03:23:40;;;;;;;14.45;2.60;;;20.40;99.90;;;;;;5033783;28;20198;-58
2022/08/02 03:26:07;;;;;;;6.47;2.13;;;19.90;99.90;;;;;;5032415;28;20217;-57
2022/08/02 03:28:33;;;;;;;5.25;1.98;;;19.90;99.90;;;;;;5046033;28;20180;-64
2022/08/02 03:31:00;;;;;;;9.82;2.13;;;19.90;99.90;;;;;;5046585;28;20177;-58
2022/08/02 03:33:26;;;;;;;14.40;2.25;;;19.90;99.90;;;;;;5052279;28;20276;-58
2022/08/02 03:35:57;;;;;;;9.48;2.28;;;19.90;99.90;;;;;;5051884;28;20229;-58
2022/08/02 03:38:24;;;;;;;8.93;2.72;;;19.90;99.90;;;;;;5052287;28;20200;-56
2022/08/02 03:40:50;;;;;;;9.95;2.92;;;19.80;99.90;;;;;;5052273;28;20220;-56
2022/08/02 03:43:17;;;;;;;8.57;2.92;;;19.80;99.90;;;;;;5052093;28;20201;-56
2022/08/02 03:45:46;;;;;;;10.73;2.92;;;19.80;99.90;;;;;;5051921;28;20667;-56
2022/08/02 03:48:13;;;;;;;10.40;3.13;;;19.80;99.90;;;;;;5043064;28;20201;-57
2022/08/02 03:50:40;;;;;;;9.85;3.80;;;19.80;99.90;;;;;;5032058;28;20257;-57
2022/08/02 03:53:06;;;;;;;10.27;3.63;;;19.80;99.90;;;;;;5032057;28;20166;-56
2022/08/02 03:55:33;;;;;;;8.77;3.70;;;19.80;99.90;;;;;;5031975;28;20172;-56
2022/08/02 03:58:00;;;;;;;9.57;3.67;;;19.80;99.90;;;;;;5032056;28;20558;-56
2022/08/02 04:00:25;;;;;;;12.05;3.33;;;19.80;99.90;;;;;;5031999;28;20169;-57
2022/08/02 04:02:51;;;;;;;13.00;3.65;;;19.80;99.90;;;;;;5031932;28;20249;-57
2022/08/02 04:05:18;;;;;;;9.38;3.28;;;19.80;99.90;;;;;;5031776;28;20202;-57
2022/08/02 04:07:44;;;;;;;9.73;3.20;;;19.80;99.90;;;;;;5031713;28;20186;-58
2022/08/02 04:10:10;;;;;;;6.80;2.80;;;19.80;99.90;;;;;;5031725;28;20514;-57
2022/08/02 04:12:37;;;;;;;8.25;2.83;;;19.80;99.90;;;;;;5031818;28;20201;-57
2022/08/02 04:15:07;;;;;;;11.15;3.38;;;19.80;99.90;;;;;;5031656;28;20170;-57
2022/08/02 04:17:36;;;;;;;7.88;2.70;;;19.80;99.90;;;;;;5031733;28;20177;-56
2022/08/02 04:20:09;;;;;;;8.38;2.70;;;19.80;99.90;;;;;;5031678;28;20265;-56
2022/08/02 04:22:39;;;;;;;8.52;2.75;;;19.90;99.90;;;;;;5031524;28;20220;-57
2022/08/02 04:25:07;;;;;;;11.50;2.60;;;19.90;99.90;;;;;;5043105;28;20255;-57
2022/08/02 04:27:35;;;;;;;6.95;2.65;;;19.90;99.90;;;;;;5051562;28;20189;-57
2022/08/02 04:30:02;;;;;;;7.88;2.38;;;20.00;99.90;;;;;;5051305;28;20191;-57
2022/08/02 04:32:30;;;;;;;9.02;2.47;;;19.90;99.90;;;;;;5051371;28;20755;-57
2022/08/02 04:34:56;;;;;;;10.82;3.63;;;20.00;99.90;;;;;;5050319;28;20224;-57
2022/08/02 04:37:22;;;;;;;7.03;2.70;;;20.00;99.90;;;;;;5051611;28;20181;-57
2022/08/02 04:39:47;;;;;;;10.75;2.78;;;20.00;99.90;;;;;;5046459;28;20189;-57
2022/08/02 04:42:25;;;;;;;10.18;2.80;;;20.00;99.90;;;;;;5041954;28;20181;-56
2022/08/02 04:44:51;;;;;;;9.18;2.10;;;20.00;99.90;;;;;;5051071;28;20604;-56
2022/08/02 04:47:17;;;;;;;8.63;2.72;;;20.00;99.90;;;;;;5031882;28;20300;-57
2022/08/02 04:49:43;;;;;;;11.40;2.30;;;20.10;99.90;;;;;;5031077;28;20170;-57
2022/08/02 04:52:09;;;;;;;14.63;2.35;;;20.10;99.90;;;;;;5031229;28;20180;-56
2022/08/02 04:54:34;;;;;;;9.82;2.40;;;20.10;99.90;;;;;;5031230;28;20178;-58
2022/08/02 04:57:00;;;;;;;13.30;2.35;;;20.20;99.90;;;;;;5031221;28;20201;-57
2022/08/02 04:59:26;;;;;;;8.68;2.63;;;20.10;99.90;;;;;;5031135;28;20563;-56
2022/08/02 05:01:52;;;;;;;8.15;2.35;;;20.20;99.90;;;;;;5031036;28;20656;-57
2022/08/02 05:04:17;;;;;;;9.00;2.05;;;20.20;99.90;;;;;;5030857;28;20201;-54
2022/08/02 05:06:43;;;;;;;6.63;2.15;;;20.10;99.90;;;;;;5030800;28;20224;-56
2022/08/02 05:09:09;;;;;;;8.63;2.25;;;20.10;99.90;;;;;;5030913;28;20648;-57
2022/08/02 05:11:34;;;;;;;9.13;2.22;;;20.10;99.90;;;;;;5030824;28;20193;-57
2022/08/02 05:14:00;;;;;;;8.77;1.92;;;20.10;99.90;;;;;;5030878;28;20201;-57
2022/08/02 05:16:26;;;;;;;8.48;2.22;;;20.20;99.90;;;;;;5030875;28;20351;-56
2022/08/02 05:18:52;;;;;;;7.45;1.80;;;20.20;99.90;;;;;;5030684;28;20174;-57
2022/08/02 05:21:18;;;;;;;9.48;2.00;;;20.20;99.90;;;;;;5031054;28;20605;-57
2022/08/02 05:23:44;;;;;;;13.85;2.10;;;20.20;99.90;;;;;;5031188;28;20178;-57
2022/08/02 05:26:09;;;;;;;10.10;1.80;;;20.20;99.90;;;;;;5050522;28;20208;-56
2022/08/02 05:28:35;;;;;;;5.80;1.48;;;20.20;99.90;;;;;;5050684;28;20203;-56
2022/08/02 05:31:01;;;;;;;12.70;1.80;;;20.20;99.90;;;;;;5050577;28;20660;-55
2022/08/02 05:33:27;;;;;;;10.38;1.73;;;20.20;99.90;;;;;;5050459;28;20589;-56
2022/08/02 05:35:52;;;;;;;8.98;1.98;;;20.20;99.90;;;;;;5050366;28;20213;-56
2022/08/02 05:38:18;;;;;;;6.75;2.05;;;20.20;99.90;;;;;;5050488;28;20542;-57
2022/08/02 05:40:44;;;;;;;9.65;2.30;;;20.20;99.90;;;;;;5050550;28;20173;-56
2022/08/02 05:43:13;;;;;;;7.82;2.13;;;20.20;99.90;;;;;;5050373;28;20177;-56
2022/08/02 05:45:40;;;;;;;7.63;2.00;;;20.10;99.90;;;;;;5052549;28;20319;-56
2022/08/02 05:48:06;;;;;;;8.13;1.92;;;20.10;99.90;;;;;;5054604;28;20188;-56
2022/08/02 05:50:35;;;;;;;7.60;1.70;;;20.10;99.90;;;;;;5054310;28;20165;-64
2022/08/02 05:53:22;;;;;;;11.55;2.20;;;20.10;99.90;;;;;;5054232;28;20177;-56
2022/08/02 05:56:01;;;;;;;9.15;1.73;;;20.10;99.90;;;;;;5054169;28;20643;-55
2022/08/02 05:58:35;;;;;;;9.32;2.08;;;20.10;99.90;;;;;;5054146;28;20231;-56
2022/08/02 06:01:02;;;;;;;9.32;1.63;;;20.00;99.90;;;;;;5054304;28;20180;-56
2022/08/02 06:03:38;;;;;;;13.10;1.98;;;19.90;99.90;;;;;;5054059;28;20177;-56
2022/08/02 06:06:08;;;;;;;5.60;1.52;;;19.80;99.90;;;;;;5054056;28;20204;-56
2022/08/02 06:08:45;;;;;;;6.30;1.60;;;19.70;99.90;;;;;;5053990;28;20172;-55
2022/08/02 06:11:15;;;;;;;6.93;1.70;;;19.50;99.90;;;;;;5053905;28;20666;-56
2022/08/02 06:13:41;;;;;;;10.57;2.13;;;19.40;99.90;;;;;;5053768;28;20880;-56
2022/08/02 06:16:08;;;;;;;12.02;2.15;;;19.30;99.90;;;;;;5053747;28;20264;-56
2022/08/02 06:18:34;;;;;;;5.03;2.00;;;19.20;99.90;;;;;;5053688;28;20165;-55
2022/08/02 06:21:02;;;;;;;11.88;2.38;;;19.60;99.90;;;;;;5053609;28;20197;-56
2022/08/02 06:23:29;;;;;;;7.28;2.58;;;19.20;99.90;;;;;;5053616;28;20174;-55
2022/08/02 06:25:56;;;;;;;6.57;1.92;;;19.20;99.90;;;;;;5053267;28;20284;-77
2022/08/02 06:28:23;;;;;;;6.60;2.08;;;19.20;99.90;;;;;;5054259;28;20174;-77
2022/08/02 06:30:49;;;;;;;9.88;2.55;;;19.20;99.90;;;;;;5053945;28;20169;-77
2022/08/02 06:33:15;;;;;;;6.80;2.03;;;19.20;99.90;;;;;;5053976;28;20169;-78
2022/08/02 06:35:57;;;;;;;5.00;2.05;;;19.30;99.90;;;;;;5053927;28;20282;-78
2022/08/02 06:38:26;;;;;;;6.60;2.00;;;19.40;99.90;;;;;;5054860;28;20165;-80
2022/08/02 06:41:02;;;;;;;5.32;2.13;;;19.50;99.90;;;;;;5057765;28;20177;-81
2022/08/02 06:43:44;;;;;;;7.15;2.05;;;19.50;99.90;;;;;;5051750;28;20176;-73
2022/08/02 06:46:10;;;;;;;7.70;1.70;;;19.60;99.90;;;;;;5044828;28;20262;-76
2022/08/02 06:48:36;;;;;;;7.18;1.90;;;19.60;99.90;;;;;;5042462;28;20177;-74
2022/08/02 06:51:02;;;;;;;5.88;2.05;;;19.60;99.90;;;;;;5056234;28;20169;-77
2022/08/02 06:53:29;;;;;;;8.95;2.00;;;19.60;99.90;;;;;;5051611;28;20173;-76
2022/08/02 06:55:54;;;;;;;6.10;1.60;;;19.70;99.90;;;;;;5043375;28;20177;-78
2022/08/02 06:58:20;;;;;;;5.72;1.88;;;19.70;99.90;;;;;;5053152;28;20173;-74
2022/08/02 07:00:46;;;;;;;8.50;1.65;;;19.70;99.90;;;;;;5038054;28;20217;-77
2022/08/02 07:03:12;;;;;;;6.43;1.70;;;19.70;99.90;;;;;;5034235;28;20166;-77
2022/08/02 07:05:40;;;;;;;4.95;1.80;;;19.60;99.90;;;;;;5034201;28;20255;-76
2022/08/02 07:08:06;;;;;;;6.90;1.70;;;19.60;99.90;;;;;;5052296;28;20177;-77
2022/08/02 07:10:31;;;;;;;4.07;1.40;;;19.60;99.90;;;;;;5053140;28;20203;-77
2022/08/02 07:12:57;;;;;;;6.30;1.83;;;19.50;99.90;;;;;;5053144;28;20188;-75
2022/08/02 07:15:23;;;;;;;11.40;2.28;;;19.40;99.90;;;;;;5052717;28;20231;-75
2022/08/02 07:17:48;;;;;;;6.30;1.70;;;19.40;99.90;;;;;;5056231;28;20547;-76
2022/08/02 07:20:14;;;;;;;7.45;1.60;;;19.40;99.90;;;;;;5062030;28;20517;-79
2022/08/02 07:22:40;;;;;;;6.97;1.65;;;19.40;99.90;;;;;;5042388;28;20197;-73
2022/08/02 07:25:07;;;;;;;8.27;1.67;;;19.40;99.90;;;;;;5032912;28;20312;-73
2022/08/02 07:27:33;;;;;;;8.70;1.60;;;19.40;99.90;;;;;;5032453;28;20210;-67
2022/08/02 07:30:00;;;;;;;6.57;1.65;;;19.50;99.90;;;;;;5032360;28;20174;-67
2022/08/02 07:32:28;;;;;;;3.75;1.60;;;19.50;99.90;;;;;;5032770;28;20178;-66
2022/08/02 07:34:54;;;;;;;5.03;1.20;;;19.50;99.90;;;;;;5032119;28;20683;-67
2022/08/02 07:37:22;;;;;;;3.50;1.30;;;19.50;99.90;;;;;;5032345;28;20193;-67
2022/08/02 07:39:48;;;;;;;2.10;1.40;;;19.50;99.90;;;;;;5032198;28;20170;-66
2022/08/02 07:42:14;;;;;;;3.97;1.38;;;19.50;99.90;;;;;;5033072;28;20265;-65
2022/08/02 07:44:39;;;;;;;3.75;1.48;;;19.60;99.90;;;;;;5049849;28;20252;-67
2022/08/02 07:47:05;;;;;;;4.80;1.30;;;19.60;99.90;;;;;;5051986;28;20239;-65
2022/08/02 07:49:31;;;;;;;5.78;1.55;;;19.60;99.90;;;;;;5051952;28;20169;-66
2022/08/02 07:51:57;;;;;;;2.88;1.27;;;19.70;99.90;;;;;;5050710;28;20177;-63
2022/08/02 07:54:23;;;;;;;4.13;1.25;;;19.70;99.90;;;;;;5051625;28;20257;-65
2022/08/02 07:56:49;;;;;;;7.35;1.40;;;19.70;99.90;;;;;;5051655;28;20265;-65
2022/08/02 07:59:14;;;;;;;1.98;1.20;;;19.70;99.90;;;;;;5051776;28;20185;-64
2022/08/02 08:01:40;;;;;;;3.22;1.17;;;19.80;99.90;;;;;;5051760;28;20169;-63
2022/08/02 08:04:06;;;;;;;2.58;1.20;;;19.80;99.90;;;;;;5051772;28;20169;-67
2022/08/02 08:06:32;;;;;;;9.02;1.20;;;19.90;99.90;;;;;;5034428;28;20365;-69
2022/08/02 08:08:58;;;;;;;3.03;0.85;;;19.90;99.90;;;;;;5031746;28;20692;-69
2022/08/02 08:11:25;;;;;;;5.22;0.90;;;19.90;99.90;;;;;;5032101;28;20227;-68
2022/08/02 08:13:50;;;;;;;7.35;1.42;;;19.90;99.90;;;;;;5031542;28;20158;-66
2022/08/02 08:16:17;;;;;;;3.20;0.90;;;20.00;99.90;;;;;;5039189;28;20907;-58
2022/08/02 08:18:43;;;;;;;3.85;0.98;;;20.00;99.90;;;;;;5031726;28;20178;-65
2022/08/02 08:21:08;;;;;;;4.72;1.40;;;20.00;99.90;;;;;;5031550;28;20642;-64
2022/08/02 08:23:35;;;;;;;5.05;0.90;;;20.00;99.90;;;;;;5031551;28;20633;-65
2022/08/02 08:26:01;;;;;;;4.88;1.10;;;20.10;99.90;;;;;;5031667;28;20224;-64
2022/08/02 08:28:27;;;;;;;7.05;0.90;;;20.20;99.90;;;;;;5034698;28;20181;-63
2022/08/02 08:30:52;;;;;;;12.52;1.40;;;20.30;99.90;;;;;;5048295;28;20537;-64
2022/08/02 08:33:18;;;;;;;6.88;1.40;;;20.30;99.90;;;;;;5033835;28;20209;-64
2022/08/02 08:35:44;;;;;;;4.95;1.60;;;20.40;99.90;;;;;;5032897;28;20217;-64
2022/08/02 08:38:11;;;;;;;13.18;1.58;;;20.50;99.90;;;;;;5035350;28;20201;-64
2022/08/02 08:40:37;;;;;;;3.63;1.00;;;20.70;99.90;;;;;;5031178;28;20540;-65
2022/08/02 08:43:04;;;;;;;5.63;1.30;;;20.80;99.90;;;;;;5035939;28;20239;-64
2022/08/02 08:45:30;;;;;;;6.65;1.30;;;20.80;99.90;;;;;;5031072;28;20188;-64
2022/08/02 08:48:05;;;;;;;2.83;0.95;;;20.90;99.90;;;;;;5031835;28;20577;-64
2022/08/02 08:50:34;;;;;;;3.22;1.40;;;20.90;99.90;;;;;;5030993;28;20640;-65
2022/08/02 08:53:03;;;;;;;6.00;1.63;;;20.90;99.90;;;;;;5037409;28;20233;-64
2022/08/02 08:55:30;;;;;;;9.40;1.67;;;21.00;99.90;;;;;;5039404;28;20235;-64
2022/08/02 08:57:57;;;;;;;11.38;1.70;;;21.00;99.90;;;;;;5049519;28;20169;-62
2022/08/02 09:00:23;;;;;;;7.85;1.73;;;21.00;99.90;;;;;;5047770;28;20807;-71
2022/08/02 09:02:49;;;;;;;16.30;1.63;;;21.10;99.90;;;;;;5050969;28;20248;-73
2022/08/02 09:05:16;;;;;;;9.05;1.30;;;21.10;99.90;;;;;;5040021;28;20209;-65
2022/08/02 09:07:45;;;;;;;12.48;1.45;;;21.20;99.90;;;;;;5038866;28;20202;-62
2022/08/02 09:10:30;;;;;;;4.10;1.40;;;21.20;99.90;;;;;;5050650;28;20197;-61
2022/08/02 09:13:16;;;;;;;11.52;1.40;;;21.50;99.90;;;;;;5050643;28;20179;-60
2022/08/02 09:15:44;;;;;;;7.53;1.13;;;21.50;99.90;;;;;;5049878;28;20173;-60
2022/08/02 09:18:11;;;;;;;6.10;1.13;;;21.50;99.90;;;;;;5049169;28;20201;-59
2022/08/02 09:20:56;;;;;;;3.13;1.10;;;21.40;99.90;;;;;;5052571;28;20252;-60
2022/08/02 09:23:22;;;;;;;4.57;1.17;;;21.60;99.90;;;;;;5053434;28;20169;-61
2022/08/02 09:26:03;;;;;;;7.30;1.50;;;21.90;99.90;;;;;;5054477;28;20696;-63
2022/08/02 09:28:31;;;;;;;8.27;0.90;;;22.00;99.90;;;;;;5053211;28;20603;-64
2022/08/02 09:31:06;;;;;;;6.70;1.60;;;21.90;99.90;;;;;;5034974;28;20260;-63
2022/08/02 09:33:32;;;;;;;4.43;1.02;;;22.10;99.90;;;;;;5033497;28;20234;-63
2022/08/02 09:36:12;;;;;;;6.10;1.20;;;22.20;99.90;;;;;;5033339;28;20435;-65
2022/08/02 09:38:39;;;;;;;6.68;1.10;;;22.30;99.90;;;;;;5033045;28;20173;-64
2022/08/02 09:41:18;;;;;;;2.90;0.90;;;22.70;99.90;;;;;;5034467;28;20174;-63
2022/08/02 09:43:44;;;;;;;4.65;1.05;;;22.70;99.90;;;;;;5034284;28;20212;-64
2022/08/02 09:46:28;;;;;;;2.42;0.90;;;22.60;99.90;;;;;;5048139;28;20225;-64
2022/08/02 09:49:02;;;;;;;4.18;1.02;;;23.00;99.90;;;;;;5046181;28;20182;-64
2022/08/02 09:51:35;;;;;;;5.27;1.10;;;23.00;99.90;;;;;;5033534;28;20448;-62
2022/08/02 09:54:07;;;;;;;2.80;0.75;;;23.00;99.90;;;;;;5048399;28;20192;-65
2022/08/02 09:56:48;;;;;;;4.38;0.80;;;23.10;99.90;;;;;;5052241;28;20180;-65
2022/08/02 09:59:15;;;;;;;6.15;0.80;;;23.10;99.90;;;;;;5041117;28;20173;-65
2022/08/02 10:01:43;;;;;;;5.07;0.85;;;23.10;99.90;;;;;;5052625;28;20187;-65
2022/08/02 10:04:13;;;;;;;7.38;1.00;;;23.00;99.90;;;;;;5053153;28;20185;-67
2022/08/02 10:06:40;;;;;;;6.25;1.50;;;22.90;99.90;;;;;;5037753;28;20264;-65
2022/08/02 10:09:08;;;;;;;2.60;1.30;;;22.70;99.90;;;;;;5033596;28;20174;-66
2022/08/02 10:11:34;;;;;;;2.83;1.27;;;22.40;99.90;;;;;;5035862;28;20240;-66
2022/08/02 10:14:05;;;;;;;3.58;1.10;;;22.30;99.90;;;;;;5041707;28;20181;-64
2022/08/02 10:16:33;;;;;;;2.53;0.90;;;22.20;99.90;;;;;;5048897;28;20173;-64
2022/08/02 10:19:03;;;;;;;2.85;0.70;;;22.00;99.90;;;;;;5051112;28;20173;-64
2022/08/02 10:21:32;;;;;;;3.50;0.80;;;21.70;99.90;;;;;;5033816;28;20253;-63
2022/08/02 10:24:20;;;;;;;4.68;0.70;;;21.60;99.90;;;;;;5049764;28;20656;-66
2022/08/02 10:26:47;;;;;;;2.33;0.73;;;21.30;99.90;;;;;;5051894;28;20308;-70
2022/08/02 10:29:18;;;;;;;3.17;0.80;;;21.30;99.90;;;;;;5053878;28;20219;-69
2022/08/02 10:31:54;;;;;;;4.68;0.90;;;21.30;99.90;;;;;;5052621;28;20173;-67
2022/08/02 10:34:26;;;;;;;3.88;0.90;;;21.30;99.90;;;;;;5053423;28;20165;-68
2022/08/02 10:36:53;;;;;;;6.85;1.05;;;21.50;99.90;;;;;;5053427;28;20185;-67
2022/08/02 10:39:19;;;;;;;4.28;0.80;;;22.00;99.90;;;;;;5051228;28;20188;-68
2022/08/02 10:41:51;;;;;;;4.82;0.75;;;23.00;99.90;;;;;;5034577;28;20169;-68
2022/08/02 10:44:20;;;;;;;2.42;1.00;;;24.00;99.90;;;;;;5050505;28;20181;-67
2022/08/02 10:46:46;;;;;;;6.15;1.08;;;24.00;99.90;;;;;;5053149;28;20204;-66
2022/08/02 10:49:13;;;;;;;5.60;1.13;;;24.10;99.90;;;;;;5052349;28;20179;-66
2022/08/02 10:51:54;;;;;;;8.15;1.20;;;24.00;99.90;;;;;;5032053;28;20201;-67
2022/08/02 10:54:21;;;;;;;5.95;1.10;;;23.90;99.90;;;;;;5033453;28;20170;-66
2022/08/02 10:56:49;;;;;;;5.07;1.10;;;23.60;99.90;;;;;;5032767;28;20870;-66
2022/08/02 10:59:34;;;;;;;3.97;1.00;;;23.60;99.90;;;;;;5044857;28;20166;-66
2022/08/02 11:02:01;;;;;;;7.35;1.20;;;23.30;99.90;;;;;;5041451;28;20205;-66
2022/08/02 11:04:36;;;;;;;6.47;1.17;;;23.00;99.90;;;;;;5037936;28;20166;-65
2022/08/02 11:07:09;;;;;;;10.65;1.67;;;22.90;99.90;;;;;;5032586;28;20237;-66
2022/08/02 11:09:35;;;;;;;8.35;1.65;;;22.80;99.90;;;;;;5032632;28;20582;-66
2022/08/02 11:12:09;;;;;;;7.30;1.40;;;22.80;99.90;;;;;;5032745;28;20186;-66
2022/08/02 11:14:41;;;;;;;7.80;1.90;;;22.60;99.90;;;;;;5033357;28;20224;-66
2022/08/02 11:17:14;;;;;;;12.57;2.65;;;22.50;99.90;;;;;;5034166;28;20178;-67
2022/08/02 11:20:11;;;;;;;13.40;2.40;;;22.40;99.90;;;;;;5031392;28;20273;-66
2022/08/02 11:22:38;;;;;;;7.85;2.70;;;22.30;99.90;;;;;;5037158;28;20219;-66
2022/08/02 11:25:22;;;;;;;16.20;2.63;;;22.40;99.90;;;;;;5044696;28;20177;-65
2022/08/02 11:27:52;;;;;;;14.73;2.40;;;22.60;99.90;;;;;;5050967;28;20580;-64
2022/08/02 11:30:19;;;;;;;21.90;3.22;;;22.60;99.90;;;;;;5032637;28;20196;-66
2022/08/02 11:32:45;;;;;;;12.77;3.08;;;22.70;99.90;;;;;;5032433;28;20170;-65
2022/08/02 11:35:11;;;;;;;23.58;3.50;;;22.60;99.90;;;;;;5032336;28;20297;-65
2022/08/02 11:37:42;;;;;;;13.05;3.35;;;22.60;99.90;;;;;;5031086;28;20193;-65
2022/08/02 11:40:15;;;;;;;21.55;3.88;;;22.50;99.90;;;;;;5037916;28;20191;-65
2022/08/02 11:42:44;;;;;;;19.67;3.80;;;22.40;99.90;;;;;;5049950;28;20156;-65
2022/08/02 11:45:12;;;;;;;19.75;3.35;;;22.40;99.90;;;;;;5072003;28;20180;-65
2022/08/02 11:48:04;;;;;;;15.80;3.63;;;22.00;99.90;;;;;;5065017;28;20201;-66
2022/08/02 11:50:30;;;;;;;17.77;3.40;;;21.70;99.90;;;;;;5070046;28;20188;-66
2022/08/02 11:52:55;;;;;;;19.60;3.95;;;21.60;99.90;;;;;;5070701;28;20229;-66
2022/08/02 11:55:28;;;;;;;21.75;4.40;;;21.50;99.90;;;;;;5044900;28;20201;-66
2022/08/02 11:58:02;;;;;;;17.73;3.85;;;21.40;99.90;;;;;;5051006;28;20177;-66
2022/08/02 12:00:28;;;;;;;16.73;4.35;;;21.50;99.90;;;;;;5044663;28;20245;-67
2022/08/02 12:02:54;;;;;;;29.98;5.15;;;21.50;99.90;;;;;;5032126;28;20253;-65
2022/08/02 12:05:22;;;;;;;20.23;4.07;;;21.40;99.90;;;;;;5031810;28;20188;-66
2022/08/02 12:07:50;;;;;;;24.63;4.60;;;;;;;;;;5031640;28;20676;-66
2022/08/02 12:10:22;;;;;;;20.75;3.55;;;21.70;99.90;;;;;;5031512;28;20180;-66
2022/08/02 12:12:50;;;;;;;22.48;4.10;;;;;;;;;;5040040;28;20173;-66
2022/08/02 12:15:36;;;;;;;14.43;4.07;;;21.60;99.90;;;;;;5039681;28;20547;-65
2022/08/02 12:20:51;;;;;;;18.98;4.07;;;21.70;99.90;;;;;;5049428;28;20231;-66
2022/08/02 12:23:16;;;;;;;15.10;3.15;;;21.60;99.90;;;;;;5038603;28;20173;-67
2022/08/02 12:25:42;;;;;;;16.70;3.50;;;21.70;99.90;;;;;;5039935;28;20699;-66
2022/08/02 12:28:21;;;;;;;16.40;4.00;;;21.70;99.90;;;;;;5042335;28;20238;-66
2022/08/02 12:30:52;;;;;;;18.52;3.05;;;21.60;99.90;;;;;;5032056;28;20169;-66
2022/08/02 12:33:18;;;;;;;16.92;3.88;;;21.50;99.90;;;;;;5036719;28;20323;-66
2022/08/02 12:35:44;;;;;;;18.13;3.72;;;21.50;99.90;;;;;;5039264;28;20432;-66
2022/08/02 12:38:11;;;;;;;14.50;3.08;;;21.50;99.90;;;;;;5034791;28;20552;-66
2022/08/02 12:40:36;;;;;;;17.15;3.00;;;21.20;99.90;;;;;;5031727;28;20209;-66
2022/08/02 12:43:05;;;;;;;19.25;3.22;;;21.10;99.90;;;;;;5032467;28;20169;-65
2022/08/02 12:45:48;;;;;;;12.90;2.90;;;21.20;99.90;;;;;;5032628;28;20377;-66
2022/08/02 12:48:16;;;;;;;15.55;3.45;;;21.20;99.90;;;;;;5029817;28;20177;-67
2022/08/02 12:50:43;;;;;;;20.50;3.70;;;21.30;99.90;;;;;;5040807;28;20181;-66
2022/08/02 12:53:14;;;;;;;18.50;3.25;;;21.50;99.90;;;;;;5041701;28;20182;-67
2022/08/02 12:56:09;;;;;;;11.98;3.13;;;21.70;99.90;;;;;;5031449;28;20170;-67
2022/08/02 12:58:48;;;;;;;14.63;3.30;;;22.30;99.90;;;;;;5026787;28;20186;-67
2022/08/02 13:01:23;;;;;;;18.95;3.30;;;22.40;99.90;;;;;;5046849;28;20181;-66